createdAt,value
2018-06-23T00:01:43.232Z,68.20
2018-06-23T00:04:11.617Z,68.20
2018-06-23T00:06:40.033Z,68.10
2018-06-23T00:09:08.461Z,68.30
2018-06-23T00:11:36.877Z,68.50
2018-06-23T00:14:05.316Z,68.90
2018-06-23T00:16:34.328Z,69.10
2018-06-23T00:19:02.707Z,69.60
2018-06-23T00:21:31.096Z,69.60
2018-06-23T00:23:59.504Z,69.60
2018-06-23T00:26:29.897Z,69.50
2018-06-23T00:28:58.692Z,69.80
2018-06-23T00:31:27.176Z,69.70
2018-06-23T00:33:55.565Z,69.70
2018-06-23T00:36:23.970Z,69.70
2018-06-23T00:38:52.321Z,69.70
2018-06-23T00:41:20.675Z,69.70
2018-06-23T00:43:49.059Z,69.60
2018-06-23T00:46:17.433Z,69.40
2018-06-23T00:48:45.840Z,69.20
2018-06-23T00:51:14.270Z,68.80
2018-06-23T00:53:42.663Z,68.30
2018-06-23T00:56:11.090Z,68.00
2018-06-23T00:58:50.705Z,68.00
2018-06-23T01:01:19.093Z,67.20
2018-06-23T01:03:47.461Z,67.00
2018-06-23T01:06:15.864Z,66.70
2018-06-23T01:08:44.318Z,66.70
2018-06-23T01:11:12.713Z,66.30
2018-06-23T01:13:41.093Z,66.00
2018-06-23T01:16:09.512Z,65.40
2018-06-23T01:18:38.461Z,65.40
2018-06-23T01:21:06.846Z,65.40
2018-06-23T01:23:35.248Z,65.50
2018-06-23T01:26:04.009Z,65.60
2018-06-23T01:28:32.387Z,65.50
2018-06-23T01:33:28.896Z,64.90
2018-06-23T01:35:57.317Z,64.90
2018-06-23T01:38:25.816Z,64.50
2018-06-23T01:40:54.210Z,64.60
2018-06-23T01:43:22.596Z,64.70
2018-06-23T01:45:51.024Z,64.60
2018-06-23T01:50:47.482Z,64.70
2018-06-23T01:53:15.874Z,64.60
2018-06-23T01:55:44.223Z,64.90
2018-06-23T01:58:12.728Z,64.90
2018-06-23T02:03:09.180Z,64.60
2018-06-23T02:05:37.653Z,64.00
2018-06-23T02:08:06.399Z,63.90
2018-06-23T02:10:34.795Z,63.80
2018-06-23T02:13:03.215Z,63.70
2018-06-23T02:15:36.868Z,63.60
2018-06-23T02:18:10.680Z,63.20
2018-06-23T02:20:44.356Z,63.20
2018-06-23T02:24:15.405Z,63.30
2018-06-23T02:26:49.094Z,63.20
2018-06-23T02:29:22.814Z,63.00
2018-06-23T02:31:56.619Z,62.80
2018-06-23T02:34:30.391Z,62.60
2018-06-23T02:36:58.776Z,62.90
2018-06-23T02:41:55.357Z,62.90
2018-06-23T02:44:23.785Z,63.00
2018-06-23T02:46:52.169Z,62.70
2018-06-23T02:49:20.619Z,62.90
2018-06-23T02:51:49.000Z,62.50
2018-06-23T02:54:17.385Z,61.80
2018-06-23T02:56:45.778Z,62.00
2018-06-23T02:59:14.795Z,62.10
2018-06-23T03:01:43.142Z,61.80
2018-06-23T03:04:11.519Z,62.10
2018-06-23T03:06:40.462Z,61.80
2018-06-23T03:09:08.882Z,61.50
2018-06-23T03:11:37.266Z,61.60
2018-06-23T03:14:05.677Z,61.70
2018-06-23T03:16:34.070Z,61.80
2018-06-23T03:19:02.541Z,62.00
2018-06-23T03:21:31.249Z,62.10
2018-06-23T03:23:59.625Z,62.00
2018-06-23T03:26:28.023Z,62.20
2018-06-23T03:28:56.511Z,62.30
2018-06-23T03:31:24.920Z,62.40
2018-06-23T03:33:53.364Z,62.40
2018-06-23T03:36:21.784Z,62.60
2018-06-23T03:38:50.150Z,62.50
2018-06-23T03:41:18.548Z,62.30
2018-06-23T03:43:46.999Z,62.10
2018-06-23T03:48:43.601Z,61.90
2018-06-23T03:51:11.995Z,61.80
2018-06-23T03:56:08.437Z,62.30
2018-06-23T03:58:36.793Z,62.20
2018-06-23T04:01:06.919Z,62.20
2018-06-23T04:03:35.869Z,62.20
2018-06-23T04:06:04.344Z,62.80
2018-06-23T04:08:33.340Z,62.80
2018-06-23T04:11:02.857Z,62.90
2018-06-23T04:13:31.493Z,62.90
2018-06-23T04:15:59.913Z,63.10
2018-06-23T04:18:28.310Z,63.10
2018-06-23T04:20:56.707Z,63.20
2018-06-23T04:23:25.104Z,63.60
2018-06-23T04:25:53.529Z,64.10
2018-06-23T04:28:21.874Z,64.20
2018-06-23T04:30:50.581Z,64.30
2018-06-23T04:33:18.947Z,64.50
2018-06-23T04:35:47.401Z,64.50
2018-06-23T04:38:15.785Z,64.60
2018-06-23T04:40:44.200Z,64.60
2018-06-23T04:43:12.582Z,64.70
2018-06-23T04:45:40.992Z,64.80
2018-06-23T04:48:09.933Z,65.10
2018-06-23T04:53:06.460Z,65.00
2018-06-23T04:55:35.697Z,64.70
2018-06-23T04:58:04.213Z,64.90
2018-06-23T05:00:32.670Z,64.50
2018-06-23T05:03:00.987Z,65.00
2018-06-23T05:05:29.376Z,65.10
2018-06-23T05:07:57.776Z,65.30
2018-06-23T05:10:27.117Z,65.40
2018-06-23T05:12:55.531Z,65.50
2018-06-23T05:15:23.930Z,65.40
2018-06-23T05:17:52.308Z,65.60
2018-06-23T05:20:20.880Z,65.60
2018-06-23T05:22:49.555Z,65.40
2018-06-23T05:25:17.958Z,65.40
2018-06-23T05:27:46.357Z,65.30
2018-06-23T05:30:14.714Z,65.30
2018-06-23T05:32:44.304Z,65.20
2018-06-23T05:35:12.817Z,64.80
2018-06-23T05:40:09.417Z,65.10
2018-06-23T05:42:37.825Z,64.90
2018-06-23T05:45:06.235Z,65.00
2018-06-23T05:47:34.628Z,65.00
2018-06-23T05:50:03.034Z,65.00
2018-06-23T05:52:31.457Z,65.10
2018-06-23T05:54:59.921Z,65.00
2018-06-23T05:57:28.363Z,65.10
2018-06-23T05:59:56.800Z,65.00
2018-06-23T06:02:25.235Z,64.80
2018-06-23T06:04:53.666Z,64.60
2018-06-23T06:07:22.104Z,64.40
2018-06-23T06:09:50.524Z,64.30
2018-06-23T06:12:19.003Z,64.10
2018-06-23T06:14:47.483Z,64.50
2018-06-23T06:17:23.213Z,64.60
2018-06-23T06:19:53.779Z,64.80
2018-06-23T06:22:23.884Z,65.00
2018-06-23T06:24:52.468Z,65.10
2018-06-23T06:27:20.955Z,65.50
2018-06-23T06:29:49.904Z,66.30
2018-06-23T06:32:18.390Z,66.90
2018-06-23T06:34:47.004Z,67.30
2018-06-23T06:37:15.401Z,68.40
2018-06-23T06:39:44.153Z,69.20
2018-06-23T06:42:12.734Z,70.80
2018-06-23T06:44:41.280Z,72.30
2018-06-23T06:47:11.146Z,73.30
2018-06-23T06:49:39.603Z,74.90
2018-06-23T06:52:07.992Z,76.00
2018-06-23T06:54:36.403Z,77.70
2018-06-23T06:57:04.877Z,78.50
2018-06-23T06:59:33.270Z,79.20
2018-06-23T07:02:02.322Z,78.90
2018-06-23T07:04:30.757Z,79.10
2018-06-23T07:06:59.215Z,78.60
2018-06-23T07:09:27.720Z,78.60
2018-06-23T07:11:56.126Z,78.30
2018-06-23T07:14:24.858Z,78.80
2018-06-23T07:16:53.408Z,78.50
2018-06-23T07:19:21.844Z,78.90
2018-06-23T07:21:50.258Z,79.80
2018-06-23T07:24:18.754Z,80.50
2018-06-23T07:26:47.480Z,79.10
2018-06-23T07:29:15.926Z,79.30
2018-06-23T07:31:44.328Z,79.40
2018-06-23T07:34:12.889Z,78.30
2018-06-23T07:36:41.314Z,78.50
2018-06-23T07:39:10.700Z,78.60
2018-06-23T07:41:39.335Z,77.90
2018-06-23T07:44:08.564Z,77.40
2018-06-23T07:46:37.021Z,76.60
2018-06-23T07:49:06.399Z,75.60
2018-06-23T07:51:35.966Z,76.20
2018-06-23T07:54:06.459Z,75.20
2018-06-23T07:56:34.853Z,76.10
2018-06-23T07:59:03.223Z,75.80
2018-06-23T08:01:31.729Z,75.20
2018-06-23T08:04:00.167Z,74.70
2018-06-23T08:06:28.587Z,75.50
2018-06-23T08:08:57.003Z,75.40
2018-06-23T08:11:25.404Z,75.10
2018-06-23T08:13:53.819Z,75.40
2018-06-23T08:16:22.205Z,75.60
2018-06-23T08:18:50.565Z,75.60
2018-06-23T08:21:18.960Z,75.40
2018-06-23T08:23:47.360Z,76.00
2018-06-23T08:26:15.764Z,76.10
2018-06-23T08:28:44.125Z,76.40
2018-06-23T08:31:12.522Z,76.00
2018-06-23T08:33:40.944Z,75.10
2018-06-23T08:36:09.448Z,74.60
2018-06-23T08:38:37.836Z,74.40
2018-06-23T08:41:06.293Z,73.60
2018-06-23T08:43:34.713Z,72.10
2018-06-23T08:46:03.169Z,71.80
2018-06-23T08:48:31.510Z,72.00
2018-06-23T08:53:28.106Z,71.80
2018-06-23T08:55:57.272Z,70.10
2018-06-23T09:00:53.922Z,69.90
2018-06-23T09:03:22.281Z,68.60
2018-06-23T09:05:50.665Z,68.40
2018-06-23T09:08:19.079Z,67.90
2018-06-23T09:10:47.485Z,67.40
2018-06-23T09:13:15.898Z,67.70
2018-06-23T09:15:44.600Z,67.80
2018-06-23T09:18:13.116Z,67.40
2018-06-23T09:20:41.690Z,68.00
2018-06-23T09:23:10.091Z,68.10
2018-06-23T09:25:38.473Z,67.90
2018-06-23T09:28:06.893Z,67.00
2018-06-23T09:30:35.279Z,67.20
2018-06-23T09:33:04.229Z,66.20
2018-06-23T09:35:32.562Z,66.10
2018-06-23T09:38:01.968Z,66.20
2018-06-23T09:40:30.790Z,66.50
2018-06-23T09:42:59.890Z,65.10
2018-06-23T09:45:28.283Z,65.70
2018-06-23T09:47:56.733Z,66.00
2018-06-23T09:50:25.112Z,65.90
2018-06-23T09:52:53.528Z,63.30
2018-06-23T09:55:21.933Z,61.40
2018-06-23T09:57:50.302Z,59.50
2018-06-23T10:00:22.975Z,59.50
2018-06-23T10:02:51.418Z,58.80
2018-06-23T10:05:19.787Z,57.80
2018-06-23T10:07:48.203Z,57.60
2018-06-23T10:10:16.757Z,57.00
2018-06-23T10:12:45.752Z,54.90
2018-06-23T10:15:14.144Z,53.40
2018-06-23T10:17:42.601Z,52.70
2018-06-23T10:20:10.980Z,51.90
2018-06-23T10:22:39.366Z,51.90
2018-06-23T10:25:07.763Z,51.90
2018-06-23T10:27:36.159Z,50.50
2018-06-23T10:30:04.828Z,49.00
2018-06-23T10:32:33.185Z,48.60
2018-06-23T10:35:01.612Z,48.10
2018-06-23T10:37:30.004Z,48.60
2018-06-23T10:39:58.397Z,48.10
2018-06-23T10:42:26.931Z,46.40
2018-06-23T10:44:55.917Z,45.50
2018-06-23T10:47:24.298Z,45.90
2018-06-23T10:49:52.741Z,47.00
2018-06-23T10:52:21.163Z,48.30
2018-06-23T10:54:49.569Z,48.70
2018-06-23T10:57:17.972Z,47.70
2018-06-23T10:59:46.375Z,47.30
2018-06-23T11:02:14.774Z,45.60
2018-06-23T11:04:43.251Z,46.80
2018-06-23T11:07:11.663Z,46.60
2018-06-23T11:09:40.148Z,46.80
2018-06-23T11:12:08.612Z,47.00
2018-06-23T11:14:37.047Z,47.30
2018-06-23T11:17:05.513Z,46.80
2018-06-23T11:19:33.951Z,46.70
2018-06-23T11:22:02.322Z,47.40
2018-06-23T11:24:30.920Z,44.40
2018-06-23T11:26:59.607Z,43.70
2018-06-23T11:29:27.983Z,43.80
2018-06-23T11:31:57.240Z,44.50
2018-06-23T11:34:25.661Z,43.20
2018-06-23T11:36:54.610Z,43.10
2018-06-23T11:39:23.019Z,42.90
2018-06-23T11:41:51.421Z,43.90
2018-06-23T11:44:19.806Z,44.50
2018-06-23T11:46:48.204Z,45.00
2018-06-23T11:49:16.587Z,46.00
2018-06-23T11:51:44.978Z,51.10
2018-06-23T11:54:13.572Z,53.40
2018-06-23T11:56:42.033Z,54.80
2018-06-23T11:59:11.537Z,55.10
2018-06-23T12:01:40.054Z,56.30
2018-06-23T12:04:08.509Z,57.00
2018-06-23T12:06:36.950Z,56.60
2018-06-23T12:09:07.928Z,56.80
2018-06-23T12:11:36.362Z,56.70
2018-06-23T12:14:04.761Z,56.10
2018-06-23T12:16:33.119Z,55.60
2018-06-23T12:19:01.605Z,55.40
2018-06-23T12:21:30.009Z,56.40
2018-06-23T12:23:58.403Z,55.70
2018-06-23T12:26:26.802Z,53.30
2018-06-23T12:28:55.159Z,52.40
2018-06-23T12:31:23.576Z,51.30
2018-06-23T12:33:51.940Z,51.10
2018-06-23T12:38:48.581Z,50.60
2018-06-23T12:41:16.960Z,49.80
2018-06-23T12:43:45.328Z,50.30
2018-06-23T12:46:13.695Z,51.50
2018-06-23T12:48:42.155Z,52.70
2018-06-23T12:51:10.568Z,53.60
2018-06-23T12:53:39.015Z,54.70
2018-06-23T12:56:07.507Z,54.90
2018-06-23T12:58:35.898Z,55.80
2018-06-23T13:01:04.384Z,56.50
2018-06-23T13:03:33.481Z,58.90
2018-06-23T13:06:01.895Z,60.20
2018-06-23T13:10:59.684Z,65.30
2018-06-23T13:13:28.030Z,66.70
2018-06-23T13:15:56.465Z,66.10
2018-06-23T13:18:24.882Z,67.70
2018-06-23T13:20:53.306Z,68.20
2018-06-23T13:23:21.906Z,66.30
2018-06-23T13:25:50.315Z,66.50
2018-06-23T13:28:18.678Z,66.70
2018-06-23T13:30:47.038Z,67.50
2018-06-23T13:33:15.528Z,67.10
2018-06-23T13:35:43.864Z,66.80
2018-06-23T13:38:12.320Z,64.90
2018-06-23T13:40:40.722Z,63.60
2018-06-23T13:43:10.221Z,63.10
2018-06-23T13:45:38.676Z,62.70
2018-06-23T13:48:07.099Z,61.90
2018-06-23T13:50:35.515Z,61.00
2018-06-23T13:53:04.301Z,59.70
2018-06-23T13:55:32.816Z,59.10
2018-06-23T13:58:01.248Z,57.20
2018-06-23T14:00:29.674Z,57.50
2018-06-23T14:02:58.261Z,57.80
2018-06-23T14:05:26.632Z,58.70
2018-06-23T14:07:55.103Z,58.60
2018-06-23T14:10:23.896Z,57.80
2018-06-23T14:12:52.506Z,58.40
2018-06-23T14:15:20.945Z,58.90
2018-06-23T14:17:49.351Z,58.70
2018-06-23T14:20:17.804Z,57.80
2018-06-23T14:22:46.779Z,58.00
2018-06-23T14:25:15.246Z,57.60
2018-06-23T14:27:43.757Z,56.10
2018-06-23T14:30:12.144Z,56.10
2018-06-23T14:32:40.778Z,55.90
2018-06-23T14:35:09.285Z,56.30
2018-06-23T14:37:37.662Z,56.50
2018-06-23T14:40:06.108Z,56.20
2018-06-23T14:42:34.575Z,56.40
2018-06-23T14:45:02.985Z,57.50
2018-06-23T14:47:31.371Z,57.60
2018-06-23T14:49:59.910Z,57.60
2018-06-23T14:52:28.481Z,58.20
2018-06-23T14:54:57.043Z,58.10
2018-06-23T14:57:26.062Z,58.50
2018-06-23T14:59:54.664Z,58.20
2018-06-23T15:02:23.052Z,58.40
2018-06-23T15:04:51.487Z,60.50
2018-06-23T15:07:19.838Z,63.10
2018-06-23T15:09:59.659Z,64.80
2018-06-23T15:12:39.342Z,66.10
2018-06-23T15:15:07.722Z,69.50
2018-06-23T15:17:36.099Z,71.20
2018-06-23T15:20:04.515Z,72.50
2018-06-23T15:22:32.934Z,72.80
2018-06-23T15:25:01.352Z,73.90
2018-06-23T15:27:29.852Z,73.90
2018-06-23T15:29:58.228Z,72.50
2018-06-23T15:32:26.615Z,73.40
2018-06-23T15:34:55.530Z,73.10
2018-06-23T15:37:23.899Z,72.80
2018-06-23T15:39:52.334Z,72.50
2018-06-23T15:42:20.746Z,72.30
2018-06-23T15:44:49.176Z,71.90
2018-06-23T15:47:17.642Z,71.50
2018-06-23T15:49:46.095Z,71.20
2018-06-23T15:52:14.467Z,71.00
2018-06-23T15:54:42.845Z,70.00
2018-06-23T15:57:11.430Z,69.10
2018-06-23T15:59:39.810Z,69.40
2018-06-23T16:02:08.214Z,69.50
2018-06-23T16:04:36.692Z,67.60
2018-06-23T16:07:05.364Z,67.90
2018-06-23T16:09:33.777Z,68.10
2018-06-23T16:12:02.190Z,66.70
2018-06-23T16:14:30.568Z,65.20
2018-06-23T16:16:58.959Z,64.50
2018-06-23T16:19:27.380Z,65.50
2018-06-23T16:21:55.807Z,66.20
2018-06-23T16:24:24.231Z,65.60
2018-06-23T16:26:52.640Z,64.40
2018-06-23T16:29:21.044Z,64.70
2018-06-23T16:31:49.436Z,63.80
2018-06-23T16:34:17.827Z,63.40
2018-06-23T16:36:46.231Z,63.20
2018-06-23T16:39:14.596Z,63.00
2018-06-23T16:41:43.086Z,63.40
2018-06-23T16:44:11.597Z,63.30
2018-06-23T16:46:39.981Z,63.10
2018-06-23T16:49:08.359Z,63.50
2018-06-23T16:51:36.758Z,63.70
2018-06-23T16:54:05.149Z,63.90
2018-06-23T16:56:33.693Z,63.90
2018-06-23T16:59:02.045Z,63.80
2018-06-23T17:01:30.463Z,63.60
2018-06-23T17:03:58.926Z,64.10
2018-06-23T17:06:28.463Z,64.20
2018-06-23T17:08:56.851Z,64.50
2018-06-23T17:11:25.383Z,64.90
2018-06-23T17:13:54.287Z,65.40
2018-06-23T17:16:22.836Z,66.10
2018-06-23T17:18:51.213Z,66.60
2018-06-23T17:21:19.734Z,67.50
2018-06-23T17:23:48.292Z,68.40
2018-06-23T17:26:16.752Z,68.70
2018-06-23T17:28:45.258Z,69.10
2018-06-23T17:31:14.458Z,69.50
2018-06-23T17:33:42.904Z,70.00
2018-06-23T17:36:11.547Z,70.00
2018-06-23T17:38:40.008Z,69.90
2018-06-23T17:41:08.836Z,70.00
2018-06-23T17:43:37.261Z,70.70
2018-06-23T17:46:05.708Z,71.00
2018-06-23T17:48:34.288Z,71.00
2018-06-23T17:51:02.930Z,71.30
2018-06-23T17:53:31.619Z,71.50
2018-06-23T17:56:00.198Z,71.50
2018-06-23T17:58:28.633Z,71.80
2018-06-23T18:00:57.124Z,72.30
2018-06-23T18:03:25.560Z,72.30
2018-06-23T18:05:54.080Z,72.70
2018-06-23T18:08:23.265Z,72.80
2018-06-23T18:10:51.766Z,73.10
2018-06-23T18:13:20.212Z,73.50
2018-06-23T18:15:48.787Z,74.30
2018-06-23T18:18:17.224Z,74.60
2018-06-23T18:23:13.820Z,76.20
2018-06-23T18:25:42.302Z,77.10
2018-06-23T18:28:10.745Z,77.10
2018-06-23T18:30:39.157Z,77.40
2018-06-23T18:33:07.596Z,77.70
2018-06-23T18:35:35.995Z,78.20
2018-06-23T18:38:04.841Z,79.00
2018-06-23T18:40:33.322Z,79.40
2018-06-23T18:43:01.800Z,79.10
2018-06-23T18:45:30.227Z,79.70
2018-06-23T18:50:27.103Z,80.70
2018-06-23T18:55:23.829Z,81.20
2018-06-23T18:57:52.233Z,81.60
2018-06-23T19:00:20.770Z,82.50
2018-06-23T19:02:49.175Z,83.30
2018-06-23T19:05:17.616Z,83.90
2018-06-23T19:07:46.223Z,84.70
2018-06-23T19:10:14.774Z,84.60
2018-06-23T19:12:43.852Z,84.80
2018-06-23T19:15:12.282Z,85.30
2018-06-23T19:17:40.998Z,85.30
2018-06-23T19:20:09.447Z,86.20
2018-06-23T19:22:37.909Z,85.90
2018-06-23T19:25:06.577Z,87.40
2018-06-23T19:27:35.924Z,86.90
2018-06-23T19:30:04.599Z,85.90
2018-06-23T19:32:32.955Z,86.00
2018-06-23T19:35:01.605Z,85.70
2018-06-23T19:37:30.009Z,85.80
2018-06-23T19:39:58.478Z,85.80
2018-06-23T19:42:26.871Z,86.10
2018-06-23T19:44:55.338Z,86.00
2018-06-23T19:47:23.895Z,86.20
2018-06-23T19:49:52.454Z,86.00
2018-06-23T19:52:20.899Z,86.30
2018-06-23T19:54:49.294Z,86.40
2018-06-23T19:57:17.870Z,86.30
2018-06-23T19:59:46.395Z,86.50
2018-06-23T20:02:14.843Z,86.20
2018-06-23T20:04:43.251Z,87.10
2018-06-23T20:07:11.716Z,86.90
2018-06-23T20:09:40.206Z,86.70
2018-06-23T20:12:08.680Z,87.10
2018-06-23T20:14:37.270Z,87.30
2018-06-23T20:17:06.196Z,87.40
2018-06-23T20:19:34.669Z,86.30
2018-06-23T20:22:03.145Z,86.70
2018-06-23T20:24:31.669Z,86.70
2018-06-23T20:27:00.109Z,86.30
2018-06-23T20:29:28.481Z,86.50
2018-06-23T20:31:56.910Z,86.70
2018-06-23T20:34:25.305Z,86.10
2018-06-23T20:36:53.843Z,85.60
2018-06-23T20:39:22.232Z,85.90
2018-06-23T20:41:50.665Z,86.00
2018-06-23T20:44:19.072Z,86.70
2018-06-23T20:46:47.472Z,86.60
2018-06-23T20:49:16.165Z,86.90
2018-06-23T20:51:44.613Z,87.70
2018-06-23T20:54:13.182Z,87.30
2018-06-23T20:56:42.081Z,87.10
2018-06-23T20:59:10.526Z,87.40
2018-06-23T21:01:38.981Z,87.60
2018-06-23T21:04:07.389Z,87.40
2018-06-23T21:06:35.918Z,87.60
2018-06-23T21:09:06.338Z,87.90
2018-06-23T21:11:34.786Z,87.20
2018-06-23T21:14:03.263Z,87.30
2018-06-23T21:16:31.797Z,87.00
2018-06-23T21:19:00.257Z,86.90
2018-06-23T21:21:28.764Z,87.20
2018-06-23T21:23:57.216Z,87.00
2018-06-23T21:26:25.697Z,86.50
2018-06-23T21:28:54.215Z,86.70
2018-06-23T21:31:22.644Z,87.00
2018-06-23T21:33:51.256Z,86.50
2018-06-23T21:36:19.701Z,86.00
2018-06-23T21:38:48.143Z,86.20
2018-06-23T21:41:16.589Z,86.30
2018-06-23T21:43:45.165Z,86.20
2018-06-23T21:46:13.619Z,86.00
2018-06-23T21:48:42.183Z,86.30
2018-06-23T21:51:10.595Z,86.10
2018-06-23T21:53:39.114Z,86.30
2018-06-23T21:56:07.514Z,86.60
2018-06-23T21:58:35.989Z,86.50
2018-06-23T22:01:04.426Z,86.50
2018-06-23T22:03:33.029Z,86.00
2018-06-23T22:06:01.486Z,86.20
2018-06-23T22:08:29.893Z,86.10
2018-06-23T22:10:58.329Z,86.50
2018-06-23T22:13:26.818Z,86.50
2018-06-23T22:15:55.229Z,86.60
2018-06-23T22:18:23.644Z,86.50
2018-06-23T22:23:20.245Z,86.70
2018-06-23T22:25:48.624Z,86.80
2018-06-23T22:28:17.042Z,86.00
2018-06-23T22:30:45.432Z,86.30
2018-06-23T22:33:13.940Z,86.30
2018-06-23T22:35:42.312Z,86.80
2018-06-23T22:40:38.816Z,87.20
2018-06-23T22:43:07.231Z,87.00
2018-06-23T22:45:35.632Z,86.90
2018-06-23T22:48:04.144Z,86.40
2018-06-23T22:50:32.633Z,87.30
2018-06-23T22:53:01.026Z,86.60
2018-06-23T22:55:29.463Z,86.40
2018-06-23T22:57:57.905Z,86.70
2018-06-23T23:00:26.345Z,86.70
2018-06-23T23:02:54.745Z,86.90
2018-06-23T23:05:23.217Z,86.40
2018-06-23T23:07:51.609Z,86.40
2018-06-23T23:10:20.053Z,85.90
2018-06-23T23:12:48.560Z,86.00
2018-06-23T23:15:16.966Z,85.90
2018-06-23T23:17:45.343Z,85.90
2018-06-23T23:20:13.788Z,86.00
2018-06-23T23:22:42.194Z,85.70
2018-06-23T23:25:10.648Z,85.80
2018-06-23T23:27:39.050Z,85.70
2018-06-23T23:30:08.079Z,86.00
2018-06-23T23:32:37.119Z,85.90
2018-06-23T23:35:05.569Z,86.40
2018-06-23T23:37:34.072Z,86.50
2018-06-23T23:40:02.525Z,86.40
2018-06-23T23:42:30.973Z,86.40
2018-06-23T23:44:59.525Z,86.00
2018-06-23T23:47:27.898Z,86.10
2018-06-23T23:49:56.310Z,86.20
2018-06-23T23:52:24.743Z,86.50
2018-06-23T23:54:53.251Z,86.80
2018-06-23T23:57:21.708Z,86.80
2018-06-23T23:59:50.237Z,86.70
